sensor_id;sensor_type;location;lat;lon;timestamp;temperature;humidity
63648;DHT22;49792;48.744;9.176;2023-02-08T00:02:06;16.20;57.30
63648;DHT22;49792;48.744;9.176;2023-02-08T00:04:31;16.10;57.40
63648;DHT22;49792;48.744;9.176;2023-02-08T00:06:57;16.10;57.60
63648;DHT22;49792;48.744;9.176;2023-02-08T00:09:23;16.10;57.10
63648;DHT22;49792;48.744;9.176;2023-02-08T00:11:48;16.10;57.20
63648;DHT22;49792;48.744;9.176;2023-02-08T00:14:14;16.10;57.10
63648;DHT22;49792;48.744;9.176;2023-02-08T00:16:39;16.00;57.10
63648;DHT22;49792;48.744;9.176;2023-02-08T00:19:05;16.10;57.00
63648;DHT22;49792;48.744;9.176;2023-02-08T00:21:30;16.10;56.80
63648;DHT22;49792;48.744;9.176;2023-02-08T00:23:56;16.10;56.80
63648;DHT22;49792;48.744;9.176;2023-02-08T00:26:21;16.20;56.90
63648;DHT22;49792;48.744;9.176;2023-02-08T00:28:48;16.00;56.80
63648;DHT22;49792;48.744;9.176;2023-02-08T00:31:13;16.10;56.90
63648;DHT22;49792;48.744;9.176;2023-02-08T00:33:39;16.10;56.70
63648;DHT22;49792;48.744;9.176;2023-02-08T00:36:07;16.20;56.80
63648;DHT22;49792;48.744;9.176;2023-02-08T00:38:33;16.10;56.60
63648;DHT22;49792;48.744;9.176;2023-02-08T00:40:58;16.20;56.90
63648;DHT22;49792;48.744;9.176;2023-02-08T00:43:24;16.20;56.80
63648;DHT22;49792;48.744;9.176;2023-02-08T00:45:56;16.10;57.40
63648;DHT22;49792;48.744;9.176;2023-02-08T00:48:22;16.10;57.20
63648;DHT22;49792;48.744;9.176;2023-02-08T00:53:22;16.10;57.20
63648;DHT22;49792;48.744;9.176;2023-02-08T00:55:51;16.00;56.60
63648;DHT22;49792;48.744;9.176;2023-02-08T00:58:16;16.10;56.70
63648;DHT22;49792;48.744;9.176;2023-02-08T01:00:42;16.10;56.30
63648;DHT22;49792;48.744;9.176;2023-02-08T01:03:08;16.10;57.10
63648;DHT22;49792;48.744;9.176;2023-02-08T01:05:33;16.10;56.50
63648;DHT22;49792;48.744;9.176;2023-02-08T01:08:01;16.10;56.40
63648;DHT22;49792;48.744;9.176;2023-02-08T01:10:26;16.10;56.30
63648;DHT22;49792;48.744;9.176;2023-02-08T01:12:52;16.20;56.40
63648;DHT22;49792;48.744;9.176;2023-02-08T01:15:17;16.10;56.30
63648;DHT22;49792;48.744;9.176;2023-02-08T01:17:43;16.10;57.10
63648;DHT22;49792;48.744;9.176;2023-02-08T01:20:09;16.00;56.10
63648;DHT22;49792;48.744;9.176;2023-02-08T01:22:34;16.00;56.20
63648;DHT22;49792;48.744;9.176;2023-02-08T01:25:00;16.10;56.20
63648;DHT22;49792;48.744;9.176;2023-02-08T01:27:25;16.10;56.60
63648;DHT22;49792;48.744;9.176;2023-02-08T01:29:51;16.00;56.60
63648;DHT22;49792;48.744;9.176;2023-02-08T01:32:17;16.00;56.60
63648;DHT22;49792;48.744;9.176;2023-02-08T01:34:42;16.00;56.60
63648;DHT22;49792;48.744;9.176;2023-02-08T01:37:08;16.00;56.30
63648;DHT22;49792;48.744;9.176;2023-02-08T01:39:33;16.00;56.30
63648;DHT22;49792;48.744;9.176;2023-02-08T01:41:59;16.00;57.00
63648;DHT22;49792;48.744;9.176;2023-02-08T01:47:08;16.00;57.00
63648;DHT22;49792;48.744;9.176;2023-02-08T01:49:34;16.00;56.30
63648;DHT22;49792;48.744;9.176;2023-02-08T01:52:22;16.00;56.40
63648;DHT22;49792;48.744;9.176;2023-02-08T01:54:50;16.00;57.20
63648;DHT22;49792;48.744;9.176;2023-02-08T01:57:16;16.00;56.40
63648;DHT22;49792;48.744;9.176;2023-02-08T01:59:49;16.00;56.40
63648;DHT22;49792;48.744;9.176;2023-02-08T02:02:17;16.00;56.30
63648;DHT22;49792;48.744;9.176;2023-02-08T02:04:43;15.90;56.30
63648;DHT22;49792;48.744;9.176;2023-02-08T02:07:09;16.00;56.30
63648;DHT22;49792;48.744;9.176;2023-02-08T02:09:43;16.00;56.60
63648;DHT22;49792;48.744;9.176;2023-02-08T02:12:09;15.90;56.10
63648;DHT22;49792;48.744;9.176;2023-02-08T02:14:36;15.90;56.20
63648;DHT22;49792;48.744;9.176;2023-02-08T02:17:02;16.00;56.20
63648;DHT22;49792;48.744;9.176;2023-02-08T02:27:25;15.90;56.30
63648;DHT22;49792;48.744;9.176;2023-02-08T02:34:46;15.90;55.70
63648;DHT22;49792;48.744;9.176;2023-02-08T02:42:41;15.90;55.90
63648;DHT22;49792;48.744;9.176;2023-02-08T02:46:17;15.90;55.90
63648;DHT22;49792;48.744;9.176;2023-02-08T02:48:26;16.00;55.90
63648;DHT22;49792;48.744;9.176;2023-02-08T02:51:00;15.90;55.90
63648;DHT22;49792;48.744;9.176;2023-02-08T02:53:30;15.90;56.20
63648;DHT22;49792;48.744;9.176;2023-02-08T02:55:59;15.80;55.60
63648;DHT22;49792;48.744;9.176;2023-02-08T02:58:26;15.80;55.70
63648;DHT22;49792;48.744;9.176;2023-02-08T03:00:56;15.80;55.70
63648;DHT22;49792;48.744;9.176;2023-02-08T03:03:23;15.80;55.80
63648;DHT22;49792;48.744;9.176;2023-02-08T03:05:49;15.90;55.80
63648;DHT22;49792;48.744;9.176;2023-02-08T03:08:19;15.80;55.50
63648;DHT22;49792;48.744;9.176;2023-02-08T03:13:24;15.80;55.80
63648;DHT22;49792;48.744;9.176;2023-02-08T03:18:34;15.80;55.50
63648;DHT22;49792;48.744;9.176;2023-02-08T03:23:27;15.80;55.40
63648;DHT22;49792;48.744;9.176;2023-02-08T03:26:04;15.80;55.60
63648;DHT22;49792;48.744;9.176;2023-02-08T03:33:37;15.80;55.60
63648;DHT22;49792;48.744;9.176;2023-02-08T03:38:57;15.80;56.60
63648;DHT22;49792;48.744;9.176;2023-02-08T03:41:28;15.80;55.80
63648;DHT22;49792;48.744;9.176;2023-02-08T03:43:59;15.80;55.50
63648;DHT22;49792;48.744;9.176;2023-02-08T03:46:28;15.80;55.90
63648;DHT22;49792;48.744;9.176;2023-02-08T03:48:56;15.70;55.80
63648;DHT22;49792;48.744;9.176;2023-02-08T03:51:23;15.60;55.80
63648;DHT22;49792;48.744;9.176;2023-02-08T03:53:49;15.80;55.60
63648;DHT22;49792;48.744;9.176;2023-02-08T03:56:19;15.80;55.60
63648;DHT22;49792;48.744;9.176;2023-02-08T03:58:46;15.80;55.50
63648;DHT22;49792;48.744;9.176;2023-02-08T04:01:28;15.70;55.50
63648;DHT22;49792;48.744;9.176;2023-02-08T04:03:54;15.70;55.60
63648;DHT22;49792;48.744;9.176;2023-02-08T04:06:21;15.70;55.70
63648;DHT22;49792;48.744;9.176;2023-02-08T04:08:47;15.70;55.40
63648;DHT22;49792;48.744;9.176;2023-02-08T04:11:13;15.80;55.60
63648;DHT22;49792;48.744;9.176;2023-02-08T04:13:38;15.90;55.60
63648;DHT22;49792;48.744;9.176;2023-02-08T04:16:04;15.70;55.30
63648;DHT22;49792;48.744;9.176;2023-02-08T04:18:30;15.80;55.40
63648;DHT22;49792;48.744;9.176;2023-02-08T04:20:55;15.70;55.80
63648;DHT22;49792;48.744;9.176;2023-02-08T04:23:21;15.80;55.30
63648;DHT22;49792;48.744;9.176;2023-02-08T04:25:46;15.60;55.70
63648;DHT22;49792;48.744;9.176;2023-02-08T04:28:11;15.70;55.30
63648;DHT22;49792;48.744;9.176;2023-02-08T04:30:37;15.60;55.60
63648;DHT22;49792;48.744;9.176;2023-02-08T04:33:02;15.70;55.30
63648;DHT22;49792;48.744;9.176;2023-02-08T04:35:28;15.70;55.40
63648;DHT22;49792;48.744;9.176;2023-02-08T04:37:54;15.70;55.10
63648;DHT22;49792;48.744;9.176;2023-02-08T04:40:19;15.70;55.30
63648;DHT22;49792;48.744;9.176;2023-02-08T04:42:44;15.70;55.00
63648;DHT22;49792;48.744;9.176;2023-02-08T04:45:10;15.70;55.00
63648;DHT22;49792;48.744;9.176;2023-02-08T04:47:35;15.60;55.20
63648;DHT22;49792;48.744;9.176;2023-02-08T04:50:01;15.80;55.20
63648;DHT22;49792;48.744;9.176;2023-02-08T04:52:27;15.70;55.00
63648;DHT22;49792;48.744;9.176;2023-02-08T04:54:52;15.60;55.20
63648;DHT22;49792;48.744;9.176;2023-02-08T04:57:18;15.80;55.00
63648;DHT22;49792;48.744;9.176;2023-02-08T04:59:43;15.60;55.40
63648;DHT22;49792;48.744;9.176;2023-02-08T05:02:09;15.60;55.10
63648;DHT22;49792;48.744;9.176;2023-02-08T05:04:34;15.60;55.00
63648;DHT22;49792;48.744;9.176;2023-02-08T05:07:00;15.60;55.10
63648;DHT22;49792;48.744;9.176;2023-02-08T05:09:26;15.60;54.70
63648;DHT22;49792;48.744;9.176;2023-02-08T05:11:51;15.60;54.70
63648;DHT22;49792;48.744;9.176;2023-02-08T05:14:17;15.60;54.70
63648;DHT22;49792;48.744;9.176;2023-02-08T05:16:42;15.60;54.80
63648;DHT22;49792;48.744;9.176;2023-02-08T05:19:08;15.60;54.60
63648;DHT22;49792;48.744;9.176;2023-02-08T05:21:35;15.60;54.80
63648;DHT22;49792;48.744;9.176;2023-02-08T05:24:00;15.60;54.70
63648;DHT22;49792;48.744;9.176;2023-02-08T05:26:25;15.60;55.20
63648;DHT22;49792;48.744;9.176;2023-02-08T05:28:51;15.60;54.60
63648;DHT22;49792;48.744;9.176;2023-02-08T05:31:18;15.60;54.70
63648;DHT22;49792;48.744;9.176;2023-02-08T05:33:44;15.60;54.70
63648;DHT22;49792;48.744;9.176;2023-02-08T05:36:09;15.60;54.70
63648;DHT22;49792;48.744;9.176;2023-02-08T05:38:35;15.70;55.70
63648;DHT22;49792;48.744;9.176;2023-02-08T05:41:00;15.80;56.80
63648;DHT22;49792;48.744;9.176;2023-02-08T05:43:26;15.80;57.90
63648;DHT22;49792;48.744;9.176;2023-02-08T05:45:51;15.90;58.20
63648;DHT22;49792;48.744;9.176;2023-02-08T05:48:17;15.90;57.60
63648;DHT22;49792;48.744;9.176;2023-02-08T05:50:43;15.90;57.50
63648;DHT22;49792;48.744;9.176;2023-02-08T05:53:09;15.90;57.90
63648;DHT22;49792;48.744;9.176;2023-02-08T05:55:34;15.90;57.70
63648;DHT22;49792;48.744;9.176;2023-02-08T05:58:00;15.90;58.10
63648;DHT22;49792;48.744;9.176;2023-02-08T06:00:25;16.00;57.00
63648;DHT22;49792;48.744;9.176;2023-02-08T06:02:51;16.00;56.60
63648;DHT22;49792;48.744;9.176;2023-02-08T06:05:16;16.00;56.50
63648;DHT22;49792;48.744;9.176;2023-02-08T06:07:42;16.00;56.40
63648;DHT22;49792;48.744;9.176;2023-02-08T06:10:07;16.00;56.30
63648;DHT22;49792;48.744;9.176;2023-02-08T06:12:33;16.00;56.30
63648;DHT22;49792;48.744;9.176;2023-02-08T06:14:58;16.00;56.50
63648;DHT22;49792;48.744;9.176;2023-02-08T06:17:24;16.00;56.20
63648;DHT22;49792;48.744;9.176;2023-02-08T06:19:49;16.10;56.60
63648;DHT22;49792;48.744;9.176;2023-02-08T06:22:15;16.10;55.90
63648;DHT22;49792;48.744;9.176;2023-02-08T06:24:40;16.20;56.20
63648;DHT22;49792;48.744;9.176;2023-02-08T06:27:06;16.10;56.30
63648;DHT22;49792;48.744;9.176;2023-02-08T06:29:31;16.10;55.90
63648;DHT22;49792;48.744;9.176;2023-02-08T06:31:57;16.00;55.80
63648;DHT22;49792;48.744;9.176;2023-02-08T06:34:22;16.00;55.10
63648;DHT22;49792;48.744;9.176;2023-02-08T06:36:48;16.00;55.40
63648;DHT22;49792;48.744;9.176;2023-02-08T06:39:13;16.00;55.40
63648;DHT22;49792;48.744;9.176;2023-02-08T06:41:39;16.10;54.90
63648;DHT22;49792;48.744;9.176;2023-02-08T06:44:04;16.00;54.80
63648;DHT22;49792;48.744;9.176;2023-02-08T06:46:30;16.00;54.60
63648;DHT22;49792;48.744;9.176;2023-02-08T06:48:55;16.00;54.30
63648;DHT22;49792;48.744;9.176;2023-02-08T06:51:22;16.10;54.10
63648;DHT22;49792;48.744;9.176;2023-02-08T06:53:47;16.10;54.00
63648;DHT22;49792;48.744;9.176;2023-02-08T06:56:13;16.10;53.60
63648;DHT22;49792;48.744;9.176;2023-02-08T06:58:38;16.20;53.60
63648;DHT22;49792;48.744;9.176;2023-02-08T07:01:04;16.10;53.80
63648;DHT22;49792;48.744;9.176;2023-02-08T07:03:29;16.10;54.60
63648;DHT22;49792;48.744;9.176;2023-02-08T07:05:55;16.20;56.40
63648;DHT22;49792;48.744;9.176;2023-02-08T07:08:20;16.20;56.20
63648;DHT22;49792;48.744;9.176;2023-02-08T07:10:46;16.20;58.00
63648;DHT22;49792;48.744;9.176;2023-02-08T07:13:13;16.20;57.80
63648;DHT22;49792;48.744;9.176;2023-02-08T07:15:39;16.20;56.40
63648;DHT22;49792;48.744;9.176;2023-02-08T07:18:04;16.20;55.50
63648;DHT22;49792;48.744;9.176;2023-02-08T07:20:30;16.20;56.60
63648;DHT22;49792;48.744;9.176;2023-02-08T07:22:55;16.20;58.00
63648;DHT22;49792;48.744;9.176;2023-02-08T07:25:21;16.20;56.30
63648;DHT22;49792;48.744;9.176;2023-02-08T07:27:46;16.20;54.90
63648;DHT22;49792;48.744;9.176;2023-02-08T07:30:12;16.20;55.40
63648;DHT22;49792;48.744;9.176;2023-02-08T07:32:37;16.30;55.50
63648;DHT22;49792;48.744;9.176;2023-02-08T07:35:03;16.20;56.00
63648;DHT22;49792;48.744;9.176;2023-02-08T07:37:29;16.30;55.50
63648;DHT22;49792;48.744;9.176;2023-02-08T07:39:55;16.30;56.10
63648;DHT22;49792;48.744;9.176;2023-02-08T07:42:21;16.40;55.90
63648;DHT22;49792;48.744;9.176;2023-02-08T07:44:46;16.30;54.80
63648;DHT22;49792;48.744;9.176;2023-02-08T07:47:12;16.40;55.60
63648;DHT22;49792;48.744;9.176;2023-02-08T07:49:37;16.30;55.60
63648;DHT22;49792;48.744;9.176;2023-02-08T07:52:03;16.40;55.80
63648;DHT22;49792;48.744;9.176;2023-02-08T07:54:29;16.30;55.00
63648;DHT22;49792;48.744;9.176;2023-02-08T07:56:54;16.40;55.70
63648;DHT22;49792;48.744;9.176;2023-02-08T07:59:20;16.30;55.70
63648;DHT22;49792;48.744;9.176;2023-02-08T08:01:45;16.30;55.40
63648;DHT22;49792;48.744;9.176;2023-02-08T08:04:11;16.30;54.50
63648;DHT22;49792;48.744;9.176;2023-02-08T08:06:37;16.30;55.00
63648;DHT22;49792;48.744;9.176;2023-02-08T08:09:02;16.30;55.30
63648;DHT22;49792;48.744;9.176;2023-02-08T08:11:28;16.30;55.10
63648;DHT22;49792;48.744;9.176;2023-02-08T08:13:53;16.30;54.60
63648;DHT22;49792;48.744;9.176;2023-02-08T08:16:19;16.30;54.50
63648;DHT22;49792;48.744;9.176;2023-02-08T08:18:45;16.30;55.00
63648;DHT22;49792;48.744;9.176;2023-02-08T08:21:10;16.40;55.00
63648;DHT22;49792;48.744;9.176;2023-02-08T08:23:36;16.30;55.00
63648;DHT22;49792;48.744;9.176;2023-02-08T08:26:20;16.30;54.00
63648;DHT22;49792;48.744;9.176;2023-02-08T08:28:46;16.30;53.80
63648;DHT22;49792;48.744;9.176;2023-02-08T08:31:12;16.40;53.90
63648;DHT22;49792;48.744;9.176;2023-02-08T08:33:38;16.50;54.00
63648;DHT22;49792;48.744;9.176;2023-02-08T08:36:03;16.40;54.10
63648;DHT22;49792;48.744;9.176;2023-02-08T08:38:29;16.40;54.40
63648;DHT22;49792;48.744;9.176;2023-02-08T08:40:54;16.40;54.60
63648;DHT22;49792;48.744;9.176;2023-02-08T08:43:20;16.40;55.30
63648;DHT22;49792;48.744;9.176;2023-02-08T08:45:45;16.40;55.20
63648;DHT22;49792;48.744;9.176;2023-02-08T08:48:11;16.40;56.30
63648;DHT22;49792;48.744;9.176;2023-02-08T08:50:37;16.40;55.40
63648;DHT22;49792;48.744;9.176;2023-02-08T08:53:03;16.50;55.60
63648;DHT22;49792;48.744;9.176;2023-02-08T08:55:29;16.50;55.60
63648;DHT22;49792;48.744;9.176;2023-02-08T08:57:54;16.50;56.10
63648;DHT22;49792;48.744;9.176;2023-02-08T09:00:20;16.40;57.40
63648;DHT22;49792;48.744;9.176;2023-02-08T09:02:45;16.40;56.70
63648;DHT22;49792;48.744;9.176;2023-02-08T09:05:11;16.40;57.00
63648;DHT22;49792;48.744;9.176;2023-02-08T09:07:36;16.40;57.80
63648;DHT22;49792;48.744;9.176;2023-02-08T09:10:02;16.40;57.20
63648;DHT22;49792;48.744;9.176;2023-02-08T09:12:28;16.40;55.80
63648;DHT22;49792;48.744;9.176;2023-02-08T09:14:53;16.40;56.80
63648;DHT22;49792;48.744;9.176;2023-02-08T09:17:19;16.50;56.00
63648;DHT22;49792;48.744;9.176;2023-02-08T09:19:44;16.40;55.60
63648;DHT22;49792;48.744;9.176;2023-02-08T09:22:11;16.40;56.90
63648;DHT22;49792;48.744;9.176;2023-02-08T09:24:37;16.40;57.20
63648;DHT22;49792;48.744;9.176;2023-02-08T09:27:03;16.40;58.00
63648;DHT22;49792;48.744;9.176;2023-02-08T09:29:28;16.40;56.40
63648;DHT22;49792;48.744;9.176;2023-02-08T09:31:54;16.40;57.60
63648;DHT22;49792;48.744;9.176;2023-02-08T09:34:20;16.40;57.30
63648;DHT22;49792;48.744;9.176;2023-02-08T09:36:45;16.40;57.40
63648;DHT22;49792;48.744;9.176;2023-02-08T09:39:13;16.40;56.80
63648;DHT22;49792;48.744;9.176;2023-02-08T09:46:31;16.40;53.70
63648;DHT22;49792;48.744;9.176;2023-02-08T09:49:22;16.50;53.60
63648;DHT22;49792;48.744;9.176;2023-02-08T09:51:50;16.30;53.30
63648;DHT22;49792;48.744;9.176;2023-02-08T09:54:21;16.50;53.00
63648;DHT22;49792;48.744;9.176;2023-02-08T09:56:48;16.50;53.00
63648;DHT22;49792;48.744;9.176;2023-02-08T09:59:15;16.50;53.20
63648;DHT22;49792;48.744;9.176;2023-02-08T10:01:41;16.40;56.30
63648;DHT22;49792;48.744;9.176;2023-02-08T10:06:51;16.60;59.40
63648;DHT22;49792;48.744;9.176;2023-02-08T10:09:17;16.60;59.50
63648;DHT22;49792;48.744;9.176;2023-02-08T10:15:04;16.50;60.40
63648;DHT22;49792;48.744;9.176;2023-02-08T10:17:42;16.50;60.70
63648;DHT22;49792;48.744;9.176;2023-02-08T10:20:21;16.50;60.80
63648;DHT22;49792;48.744;9.176;2023-02-08T10:30:24;16.50;60.40
63648;DHT22;49792;48.744;9.176;2023-02-08T10:32:59;16.50;60.20
63648;DHT22;49792;48.744;9.176;2023-02-08T10:35:36;16.50;60.30
63648;DHT22;49792;48.744;9.176;2023-02-08T10:38:21;16.50;61.10
63648;DHT22;49792;48.744;9.176;2023-02-08T10:40:52;16.50;60.30
63648;DHT22;49792;48.744;9.176;2023-02-08T10:45:53;16.50;59.80
63648;DHT22;49792;48.744;9.176;2023-02-08T10:48:27;16.50;60.00
63648;DHT22;49792;48.744;9.176;2023-02-08T10:50:55;16.60;59.50
63648;DHT22;49792;48.744;9.176;2023-02-08T10:53:21;16.50;59.80
63648;DHT22;49792;48.744;9.176;2023-02-08T10:55:47;16.50;59.20
63648;DHT22;49792;48.744;9.176;2023-02-08T10:58:17;16.50;59.20
63648;DHT22;49792;48.744;9.176;2023-02-08T11:00:44;16.50;58.80
63648;DHT22;49792;48.744;9.176;2023-02-08T11:05:45;16.50;58.20
63648;DHT22;49792;48.744;9.176;2023-02-08T11:08:11;16.50;57.80
63648;DHT22;49792;48.744;9.176;2023-02-08T11:10:40;16.40;57.90
63648;DHT22;49792;48.744;9.176;2023-02-08T11:13:16;16.50;57.50
63648;DHT22;49792;48.744;9.176;2023-02-08T11:16:00;16.40;57.60
63648;DHT22;49792;48.744;9.176;2023-02-08T11:18:31;16.40;56.80
63648;DHT22;49792;48.744;9.176;2023-02-08T11:20:59;16.40;56.70
63648;DHT22;49792;48.744;9.176;2023-02-08T11:23:25;16.50;56.70
63648;DHT22;49792;48.744;9.176;2023-02-08T11:26:38;16.40;56.40
63648;DHT22;49792;48.744;9.176;2023-02-08T11:28:39;16.50;56.20
63648;DHT22;49792;48.744;9.176;2023-02-08T11:31:13;16.50;55.70
63648;DHT22;49792;48.744;9.176;2023-02-08T11:33:44;16.50;55.50
63648;DHT22;49792;48.744;9.176;2023-02-08T11:36:24;16.50;55.60
63648;DHT22;49792;48.744;9.176;2023-02-08T11:38:50;16.50;55.60
63648;DHT22;49792;48.744;9.176;2023-02-08T11:41:17;16.40;55.70
63648;DHT22;49792;48.744;9.176;2023-02-08T11:43:43;16.40;55.60
63648;DHT22;49792;48.744;9.176;2023-02-08T11:46:18;16.40;55.60
63648;DHT22;49792;48.744;9.176;2023-02-08T11:48:49;16.50;55.70
63648;DHT22;49792;48.744;9.176;2023-02-08T11:51:26;16.50;55.30
63648;DHT22;49792;48.744;9.176;2023-02-08T11:53:52;16.50;55.20
63648;DHT22;49792;48.744;9.176;2023-02-08T11:56:20;16.50;56.00
63648;DHT22;49792;48.744;9.176;2023-02-08T12:01:41;16.50;54.80
63648;DHT22;49792;48.744;9.176;2023-02-08T12:04:11;16.40;54.70
63648;DHT22;49792;48.744;9.176;2023-02-08T12:12:11;16.40;54.20
63648;DHT22;49792;48.744;9.176;2023-02-08T12:22:27;16.50;53.50
63648;DHT22;49792;48.744;9.176;2023-02-08T12:30:06;16.50;53.60
63648;DHT22;49792;48.744;9.176;2023-02-08T12:37:29;16.60;53.30
63648;DHT22;49792;48.744;9.176;2023-02-08T12:40:32;16.60;53.10
63648;DHT22;49792;48.744;9.176;2023-02-08T12:43:29;16.60;53.00
63648;DHT22;49792;48.744;9.176;2023-02-08T12:51:18;16.60;52.50
63648;DHT22;49792;48.744;9.176;2023-02-08T12:53:54;16.60;52.80
63648;DHT22;49792;48.744;9.176;2023-02-08T12:56:23;16.60;52.70
63648;DHT22;49792;48.744;9.176;2023-02-08T12:58:50;16.50;52.30
63648;DHT22;49792;48.744;9.176;2023-02-08T13:01:18;16.60;52.40
63648;DHT22;49792;48.744;9.176;2023-02-08T13:03:50;16.50;52.50
63648;DHT22;49792;48.744;9.176;2023-02-08T13:06:25;16.50;52.30
63648;DHT22;49792;48.744;9.176;2023-02-08T13:09:07;16.50;52.60
63648;DHT22;49792;48.744;9.176;2023-02-08T13:11:40;16.50;53.10
63648;DHT22;49792;48.744;9.176;2023-02-08T13:14:15;16.60;52.90
63648;DHT22;49792;48.744;9.176;2023-02-08T13:16:48;16.60;52.70
63648;DHT22;49792;48.744;9.176;2023-02-08T13:19:22;16.60;53.20
63648;DHT22;49792;48.744;9.176;2023-02-08T13:21:48;16.60;53.10
63648;DHT22;49792;48.744;9.176;2023-02-08T13:26:44;16.50;53.10
63648;DHT22;49792;48.744;9.176;2023-02-08T13:29:14;16.50;53.60
63648;DHT22;49792;48.744;9.176;2023-02-08T13:31:42;16.50;54.00
63648;DHT22;49792;48.744;9.176;2023-02-08T13:36:58;16.50;54.00
63648;DHT22;49792;48.744;9.176;2023-02-08T13:39:43;16.60;53.20
63648;DHT22;49792;48.744;9.176;2023-02-08T13:42:33;16.50;52.90
63648;DHT22;49792;48.744;9.176;2023-02-08T13:44:59;16.60;51.80
63648;DHT22;49792;48.744;9.176;2023-02-08T13:47:26;16.60;51.50
63648;DHT22;49792;48.744;9.176;2023-02-08T13:49:54;16.60;51.10
63648;DHT22;49792;48.744;9.176;2023-02-08T13:57:51;16.70;51.10
63648;DHT22;49792;48.744;9.176;2023-02-08T14:02:59;16.70;51.00
63648;DHT22;49792;48.744;9.176;2023-02-08T14:05:33;16.80;51.00
63648;DHT22;49792;48.744;9.176;2023-02-08T14:08:03;16.70;50.70
63648;DHT22;49792;48.744;9.176;2023-02-08T14:10:38;16.70;51.00
63648;DHT22;49792;48.744;9.176;2023-02-08T14:13:06;16.70;50.70
63648;DHT22;49792;48.744;9.176;2023-02-08T14:15:41;16.70;50.70
63648;DHT22;49792;48.744;9.176;2023-02-08T14:18:26;16.80;50.80
63648;DHT22;49792;48.744;9.176;2023-02-08T14:21:02;16.80;50.90
63648;DHT22;49792;48.744;9.176;2023-02-08T14:23:29;16.80;50.80
63648;DHT22;49792;48.744;9.176;2023-02-08T14:25:56;16.80;51.00
63648;DHT22;49792;48.744;9.176;2023-02-08T14:28:24;16.80;51.10
63648;DHT22;49792;48.744;9.176;2023-02-08T14:30:50;16.60;51.30
63648;DHT22;49792;48.744;9.176;2023-02-08T14:33:22;16.70;51.00
63648;DHT22;49792;48.744;9.176;2023-02-08T14:35:50;16.70;51.40
63648;DHT22;49792;48.744;9.176;2023-02-08T14:40:49;16.70;54.90
63648;DHT22;49792;48.744;9.176;2023-02-08T14:45:43;17.10;68.90
63648;DHT22;49792;48.744;9.176;2023-02-08T14:56:02;17.30;85.70
63648;DHT22;49792;48.744;9.176;2023-02-08T14:58:33;17.20;88.70
63648;DHT22;49792;48.744;9.176;2023-02-08T15:01:01;17.20;83.90
63648;DHT22;49792;48.744;9.176;2023-02-08T15:03:29;17.20;80.20
63648;DHT22;49792;48.744;9.176;2023-02-08T15:08:40;17.00;73.40
63648;DHT22;49792;48.744;9.176;2023-02-08T15:11:15;16.90;71.00
63648;DHT22;49792;48.744;9.176;2023-02-08T15:13:41;16.90;70.60
63648;DHT22;49792;48.744;9.176;2023-02-08T15:16:12;16.90;69.90
63648;DHT22;49792;48.744;9.176;2023-02-08T15:18:38;16.90;68.90
63648;DHT22;49792;48.744;9.176;2023-02-08T15:21:12;16.90;68.00
63648;DHT22;49792;48.744;9.176;2023-02-08T15:23:39;16.90;67.50
63648;DHT22;49792;48.744;9.176;2023-02-08T15:26:16;16.90;67.20
63648;DHT22;49792;48.744;9.176;2023-02-08T15:28:43;16.90;65.40
63648;DHT22;49792;48.744;9.176;2023-02-08T15:31:16;16.90;65.00
63648;DHT22;49792;48.744;9.176;2023-02-08T15:33:48;16.90;66.30
63648;DHT22;49792;48.744;9.176;2023-02-08T15:36:29;16.90;65.30
63648;DHT22;49792;48.744;9.176;2023-02-08T15:38:57;16.90;64.50
63648;DHT22;49792;48.744;9.176;2023-02-08T15:41:24;16.90;63.00
63648;DHT22;49792;48.744;9.176;2023-02-08T15:43:58;16.80;63.20
63648;DHT22;49792;48.744;9.176;2023-02-08T15:46:24;16.80;62.80
63648;DHT22;49792;48.744;9.176;2023-02-08T15:48:51;16.80;61.80
63648;DHT22;49792;48.744;9.176;2023-02-08T15:51:17;16.90;62.00
63648;DHT22;49792;48.744;9.176;2023-02-08T15:53:48;16.80;61.20
63648;DHT22;49792;48.744;9.176;2023-02-08T15:56:15;16.80;60.60
63648;DHT22;49792;48.744;9.176;2023-02-08T15:58:43;16.80;60.20
63648;DHT22;49792;48.744;9.176;2023-02-08T16:01:16;16.80;60.10
63648;DHT22;49792;48.744;9.176;2023-02-08T16:03:45;16.80;60.00
63648;DHT22;49792;48.744;9.176;2023-02-08T16:06:11;16.80;59.60
63648;DHT22;49792;48.744;9.176;2023-02-08T16:08:37;16.80;59.00
63648;DHT22;49792;48.744;9.176;2023-02-08T16:11:46;16.70;58.80
63648;DHT22;49792;48.744;9.176;2023-02-08T16:13:53;16.70;59.50
63648;DHT22;49792;48.744;9.176;2023-02-08T16:16:39;16.50;58.60
63648;DHT22;49792;48.744;9.176;2023-02-08T16:19:05;16.70;56.30
63648;DHT22;49792;48.744;9.176;2023-02-08T16:21:42;16.90;56.90
63648;DHT22;49792;48.744;9.176;2023-02-08T16:26:44;16.80;57.10
63648;DHT22;49792;48.744;9.176;2023-02-08T16:29:29;16.70;57.90
63648;DHT22;49792;48.744;9.176;2023-02-08T16:31:56;16.60;58.00
63648;DHT22;49792;48.744;9.176;2023-02-08T16:34:25;16.60;58.30
63648;DHT22;49792;48.744;9.176;2023-02-08T16:36:54;16.60;58.20
63648;DHT22;49792;48.744;9.176;2023-02-08T16:39:21;16.60;58.20
63648;DHT22;49792;48.744;9.176;2023-02-08T16:42:00;16.60;58.20
63648;DHT22;49792;48.744;9.176;2023-02-08T16:44:31;16.60;57.50
63648;DHT22;49792;48.744;9.176;2023-02-08T16:46:57;16.60;57.40
63648;DHT22;49792;48.744;9.176;2023-02-08T16:49:23;16.60;56.80
63648;DHT22;49792;48.744;9.176;2023-02-08T16:51:49;16.60;56.40
63648;DHT22;49792;48.744;9.176;2023-02-08T16:54:18;16.50;56.30
63648;DHT22;49792;48.744;9.176;2023-02-08T16:56:44;16.50;55.80
63648;DHT22;49792;48.744;9.176;2023-02-08T16:59:11;16.50;56.20
63648;DHT22;49792;48.744;9.176;2023-02-08T17:01:40;16.50;56.30
63648;DHT22;49792;48.744;9.176;2023-02-08T17:04:08;16.50;56.20
63648;DHT22;49792;48.744;9.176;2023-02-08T17:09:12;16.40;56.50
63648;DHT22;49792;48.744;9.176;2023-02-08T17:14:44;16.40;56.60
63648;DHT22;49792;48.744;9.176;2023-02-08T17:17:10;16.20;57.10
63648;DHT22;49792;48.744;9.176;2023-02-08T17:19:47;16.40;57.20
63648;DHT22;49792;48.744;9.176;2023-02-08T17:22:13;16.30;56.90
63648;DHT22;49792;48.744;9.176;2023-02-08T17:24:39;16.30;57.00
63648;DHT22;49792;48.744;9.176;2023-02-08T17:27:04;16.30;57.20
63648;DHT22;49792;48.744;9.176;2023-02-08T17:29:30;16.30;57.10
63648;DHT22;49792;48.744;9.176;2023-02-08T17:31:56;16.30;56.90
63648;DHT22;49792;48.744;9.176;2023-02-08T17:34:21;16.30;57.20
63648;DHT22;49792;48.744;9.176;2023-02-08T17:36:47;16.30;57.30
63648;DHT22;49792;48.744;9.176;2023-02-08T17:39:13;16.10;57.30
63648;DHT22;49792;48.744;9.176;2023-02-08T17:41:39;16.20;57.30
63648;DHT22;49792;48.744;9.176;2023-02-08T17:44:05;16.20;57.00
63648;DHT22;49792;48.744;9.176;2023-02-08T17:46:31;16.20;57.10
63648;DHT22;49792;48.744;9.176;2023-02-08T17:48:57;16.20;57.10